Scroll down
FLIGHT INFORMATION
American Airlines

AAL1079

At Arrival Gate

KORD
 KAUS
DATE: 2021-05-31
GATE: H9
GATE DEPARTURE: 16:09
TAKEOFF: 16:18
DATE: 2021-05-31
GATE: G1
LANDING: 18:33
GATE ARRIVAL: 18:39
FLIGHT DATA
Crew: 
Speed: 
486 kts
Altitude: 
28,018 ft
Stage Length: 
850.3 nm
Block Time: 
2.5 hrs
Flight Time: 
2.3 hrs
Fuel Used: 
17,411 lb
Cleared Route: KORD ACITO ADELL ARLYN FAM LIT WASKO CISAR BERKE ADUKE SKKIP LFK WEEED DOOEE WAILN WLEEE BITER ISHOV BASTO LUKKE XWING SSURF BEESO UTEEE RW18R
TRACK DATA
50,000 ft 1,000 kts
AIRCRAFT INFO AND CUMULATIVE STATS
Aircraft Type: 
B738BW
Registration: 
SELCAL: 
CPBD
MSN/LN: 
33231 / 4563
Operator: 
Total Flights: 
18
Total Block Time: 
37.4 hrs
Total Flight Time: 
31.8 hrs
Total Fuel Used: 
208,099 lb
DATALINK LOG | Newest first | Current as of: 2021-09-20 17:28:13
LABEL SEQUENCE CONTENT Dn/Up
QD414718:39 7▼ Dn
QC354118:33▼ Dn
2U0347KAUS 311753Z 15013KT 10SM SCT026 BKN034 BKN060 27/22 A3006 RMK AO2 SLP170 60031 T02670222 10272 20217 58016▲ Up
2S0412KAUS▼ Dn
5Z000831 MAY 21 17:58:11z / FLT DECK GOOD / ACF POS GOOD / GRND SERVICES GOOD / MAINT GOOD▼ Dn
GA5917GATE G1▲ Up
GR5907KAUS 18:31 MAAS 01 YP/UM 02/03 WCHR/S/C 04/05/06 HI-VAL NO DIPL/VIP YES▼ Dn
UM2125715KAUS ATIS - AUS ATIS INFO U 1753Z. 15013KT 10SM SCT026 BKN034 BKN060 27/22 A3006 (THREE ZERO ZERO SIX). ARRIVALS EXPECT ILS APCH RWY 18R, 18L. SIMULAPP. NOTAMS... PAPI RWY 18L OTS. ...ADVS YOU HAVE INFO U.▲ Up
DM795705 ATIS KAUS A▼ Dn
2U5533KAUS 311653Z 17014G18KT 10SM FEW012 SCT022 BKN055 26/22 A3008 RMK AO2 SLP176 T02610222▲ Up
2S5604KAUS▼ Dn
QB203716:18▼ Dn
QA112816:09 24.4▼ Dn
2U0249KORD 311551Z 25006KT 10SM BKN150 OVC250 19/06 A3026 RMK AO2 SLP244 T01940056▲ Up
2S0321KORD▼ Dn
A35826CLEARED TO KAUS VIA ACITO ADELL ARLYN FAM LIT J101 LFK WEEED WLEEE6. SQUAWK 6233.▲ Up
5U5740KAUS 311953Z 15012KT 10SM VCSH BKN040 23/23 A3011▲ Up
2U5737KORD 311451Z 21007KT 10SM BKN170 OVC250 18/08 A3026 RMK AO2 SLP247 T01780078 50002▲ Up
5S5823KAUS▼ Dn
2S5823KORD▼ Dn
Q05715[LINK ACK]▲ Up
Q05715[LINK TEST]▼ Dn


AIRCRAFT HISTORY
FLIGHT DATE FLIGHT NO. ORIGIN DESTINATION CLEARED ROUTE BLOCK TIME FLIGHT TIME FUEL USED PILOT
2021-05-31AAL2883KLAX KORD KLAX DOCKR KLIPR KEGGS COOPP ORCKA NNAVY BLAZN LAS BAWER LARVE EKR BFF ONL KATES FOD MYRRS SAAYY BENNR JBAGS BHAWK STNLE CUUPP CHMPN CLSBY FYTTE MOTRR COGSS MADII SOOLU JORJO MONKZ TONIE HAZIL RW28C4.2 hrs3.8 hrs23,476 lbGeorge
2021-05-31AAL861KAUS KLAX KAUS PAYDA MUCKY JCT KEMPL FST EWM DMN WOBUG SATRN BXK MESSI ESTWD MCQWN MDLER MNROE HLYWD BRUEN AVATR DAAAY WADUP NEILE SEAVU SHELL RW25R3.1 hrs2.8 hrs17,855 lbGeorge
2021-05-31AAL1079KORD KAUS KORD ACITO ADELL ARLYN FAM LIT WASKO CISAR BERKE ADUKE SKKIP LFK WEEED DOOEE WAILN WLEEE BITER ISHOV BASTO LUKKE XWING SSURF BEESO UTEEE RW18R2.5 hrs2.3 hrs17,411 lbGeorge
2021-05-30AAL1969KPHX KORD KPHX MOBIE JARPA RSK HBU BFF ONL FOD MYRRS SAAYY BENNR JBAGS BHAWK STNLE CUUPP CHMPN CLSBY FYTTE MOTRR COGSS MADII SOOLU KURKK VULCN HIMGO RRUDA RW10C3.2 hrs2.9 hrs17,710 lbGeorge
2021-05-30AAL767KLAX KPHX KLAX DOCKR WEILR SHAEF PEVEE HOLTZ DOTSS WIILD BLCKD CSTWY CNERY BLH SCOLE SPINK SNRRA SWOON HYDRR GEELA PUNNT TEICH TESLE FALGO CAGOR JAMIL RW081.2 hrs0.9 hrs6,673 lbGeorge
2021-04-11AAL1024KORD KLAX KORD OLINN OREOS OBENE OGALE DSM ZIRKL KD60Y DANDD DVC CORKR ESGEE DNERO SLLRS FLOJO SALYY GLESN ANJLL CAANN BOYEL CRCUS HUNDA RW25L4 hrs3.8 hrs21,459 lbGeorge
2021-03-27AAL4406KSDF KORD KSDF LEENE ONMEE CANBE STREP BONNT NYLEN VEECK BOONE HANNI CLUSO KAYTO PINKK MONKZ JORJO POSSM RRUDA RW10C1.1 hrs0.9 hrs6,933 lbGeorge
2021-01-31AAL3436KORD KSDF KORD DENNT DARCY DREGS DONVE RAMSE SUSZE UNCOD FRIZN HONOS PROUF HAUGN LEWSS AWLEE RW35L1.3 hrs0.9 hrs6,279 lbGeorge
2021-01-31AAL575KPHX KORD KPHX FORPE SJN CUBBA TAMEY KENTO KIRKE GOSSL MCI IRK LOAMY KEOKK DRAMS RYELY BFORD EZZRA TRIDE SHAIN RAGSS JUMPN NUNWS RRUDA RW10C3.1 hrs2.8 hrs16,370 lbGeorge
2021-01-31AAL1049KDFW KPHX KDFW ROOOO RUFFS KATZZ BRHMA CNX ZUN DOJOE SLIDR TINIZ PAYSO EAGUL HOMRR VNNOM ESDEE BASSL DERVL JAGAL RW262.7 hrs2.2 hrs14,171 lbGeorge
2021-01-30AAL3338KMSP KDFW KMSP JURNY RUMLE PEDLN ORSKY ONTIJ GOOLD SIMJI EYHUX TODDO OVR SLN MMB MDANO BELFR HHULL LETNN ZUBOV VKTRY ZMMAN PHAUP ZINGG RW17C2.6 hrs2.3 hrs13,517 lbGeorge
2021-01-30AAL130KORD KMSP KORD PMPKN NEATO DLLAN RONIC KAMMA BEERI ROBBY KBULL ZZING HENDR CMAAC KKILR HUGGI KRISP AFTYN JONZY GREAK DOLEE ZESTY RW12R1.3 hrs1 hrs7,544 lbGeorge
2021-01-01AAL1510KMEM KORD KMEM CHETO MUDHO GACET EMAXE HSTON JTEEE ODATE FTZ GROOV CASHN VINCA MAROC TRICH TRTLL HIHRY RINNO JORJO MONKZ RREGY CAKOS RW28L1.6 hrs1.2 hrs8,432 lbMichael Collier
2020-11-04AAL413KDFW KMEM KDFW FORCK ELD KMEM1.4 hrs1.2 hrs8,672 lbCharles Harris
2020-10-15AAL1572KTUL KDFW KTUL PEJAY AXXEE MMANN LKINS SEEVR BRDJE NUSSS YAHBT BOSSI RW17C1.1 hrs0.8 hrs5,852 lbMichael Collier
2020-10-13AAL1446KDFW KTUL 1.1 hrs0.7 hrs5,180 lbMichael Collier
2020-10-13AAL9501KDAL KDFW KDAL RAYMA RW35C0.4 hrs0.2 hrs1,999 lbMichael Collier
2020-08-27AAL2201KMEM KDAL KMEM CHETO MUDHO NIXOE PEPOC CHLDR ANSWA LIT DIRRK KDAL1.3 hrs1.2 hrs8,564 lbRoberto Stopnicki